Time;durP1;ratioP1;P1;durP2;ratioP2;P2;SDS_P1;SDS_P2;PMS_P1;PMS_P2;Temp;Humidity;BMP_temperature;BMP_pressure;BME280_temperature;BME280_humidity;BME280_pressure;Samples;Min_cycle;Max_cycle;Signal;HPM_P1;HPM_P2
2023/06/21 00:01:35;;;;;;;6.68;1.88;;;28.20;99.90;;;;;;4935208;29;20056;-46
2023/06/21 00:04:01;;;;;;;5.63;1.95;;;28.20;99.90;;;;;;4934835;29;20038;-46
2023/06/21 00:06:34;;;;;;;7.53;1.95;;;28.20;99.90;;;;;;4935345;29;20036;-46
2023/06/21 00:09:00;;;;;;;7.38;2.55;;;28.20;99.90;;;;;;4946100;29;20024;-46
2023/06/21 00:11:26;;;;;;;10.32;2.15;;;28.20;99.90;;;;;;4948589;29;20028;-46
2023/06/21 00:13:54;;;;;;;4.95;1.92;;;28.20;99.90;;;;;;4941657;29;20412;-46
2023/06/21 00:16:20;;;;;;;5.13;1.77;;;28.20;99.90;;;;;;4940267;29;20032;-46
2023/06/21 00:18:47;;;;;;;6.72;1.90;;;28.20;99.90;;;;;;4934434;29;20118;-46
2023/06/21 00:21:13;;;;;;;8.82;2.97;;;28.20;99.90;;;;;;4953182;28;20090;-45
2023/06/21 00:23:41;;;;;;;6.32;2.17;;;28.20;99.90;;;;;;4938566;29;20036;-46
2023/06/21 00:26:07;;;;;;;4.13;2.47;;;28.20;99.90;;;;;;4938661;29;20028;-46
2023/06/21 00:28:33;;;;;;;9.13;2.30;;;28.20;99.90;;;;;;4937084;29;20361;-46
2023/06/21 00:30:59;;;;;;;5.15;2.13;;;28.20;99.90;;;;;;4938538;29;20035;-46
2023/06/21 00:33:25;;;;;;;7.20;1.85;;;28.20;99.90;;;;;;4938339;29;20480;-46
2023/06/21 00:35:51;;;;;;;8.25;2.13;;;28.20;99.90;;;;;;4938160;29;20082;-46
2023/06/21 00:38:18;;;;;;;3.97;1.85;;;28.20;99.90;;;;;;4941397;29;20118;-46
2023/06/21 00:40:44;;;;;;;5.13;1.90;;;28.20;99.90;;;;;;4947466;29;20023;-46
2023/06/21 00:43:09;;;;;;;6.00;2.38;;;28.20;99.90;;;;;;4938120;29;20028;-46
2023/06/21 00:45:40;;;;;;;7.38;4.55;;;28.20;99.90;;;;;;4936817;29;20110;-46
2023/06/21 00:48:06;;;;;;;7.43;2.45;;;28.10;99.90;;;;;;4952006;29;20035;-47
2023/06/21 00:50:32;;;;;;;7.20;2.90;;;28.10;99.90;;;;;;4937933;29;20476;-46
2023/06/21 00:52:58;;;;;;;7.97;2.25;;;28.10;99.90;;;;;;4941002;29;20027;-46
2023/06/21 00:55:24;;;;;;;7.50;2.80;;;28.10;99.90;;;;;;4949386;29;20023;-47
2023/06/21 00:57:51;;;;;;;6.32;2.75;;;28.10;99.90;;;;;;4937956;29;20213;-46
2023/06/21 01:02:44;;;;;;;8.13;2.30;;;27.90;99.90;;;;;;4936072;29;20060;-52
2023/06/21 01:05:10;;;;;;;11.15;3.40;;;27.90;99.90;;;;;;4952436;29;20405;-53
2023/06/21 01:08:13;;;;;;;8.88;2.72;;;27.90;99.90;;;;;;4937730;29;20028;-53
2023/06/21 01:11:02;;;;;;;7.60;2.47;;;27.80;99.90;;;;;;4937592;29;20034;-53
2023/06/21 01:13:41;;;;;;;9.07;2.42;;;27.80;99.90;;;;;;4937934;29;20016;-53
2023/06/21 01:16:18;;;;;;;9.45;3.10;;;27.70;99.90;;;;;;4937165;29;20020;-53
2023/06/21 01:18:45;;;;;;;14.32;3.30;;;27.60;99.90;;;;;;4937895;29;20543;-51
2023/06/21 01:21:18;;;;;;;11.02;3.58;;;27.50;99.90;;;;;;4937403;29;20032;-51
2023/06/21 01:23:51;;;;;;;13.90;2.63;;;27.50;99.90;;;;;;4937531;29;20051;-51
2023/06/21 01:27:01;;;;;;;9.82;2.90;;;27.40;99.90;;;;;;4937281;29;20031;-51
2023/06/21 01:29:34;;;;;;;8.73;2.92;;;27.20;99.90;;;;;;4936826;29;20075;-53
2023/06/21 01:32:03;;;;;;;11.85;3.33;;;27.00;99.90;;;;;;4937326;29;20055;-53
2023/06/21 01:34:32;;;;;;;9.43;2.83;;;26.80;99.90;;;;;;4937321;29;20387;-53
2023/06/21 01:36:58;;;;;;;11.50;3.33;;;26.60;99.90;;;;;;4937185;29;20484;-53
2023/06/21 01:39:28;;;;;;;11.93;3.25;;;26.50;99.90;;;;;;4937197;29;20091;-51
2023/06/21 01:41:54;;;;;;;7.78;2.53;;;26.50;99.90;;;;;;4936993;29;20051;-53
2023/06/21 01:44:21;;;;;;;8.70;3.00;;;26.40;99.90;;;;;;4937162;29;20028;-51
2023/06/21 01:46:51;;;;;;;15.98;3.55;;;26.40;99.90;;;;;;4936963;29;20024;-51
2023/06/21 01:49:18;;;;;;;6.15;2.65;;;26.40;99.90;;;;;;4937003;29;20020;-51
2023/06/21 01:51:45;;;;;;;9.15;2.80;;;26.40;99.90;;;;;;4937083;29;20368;-50
2023/06/21 01:54:13;;;;;;;8.15;2.72;;;26.40;99.90;;;;;;4936805;29;20035;-50
2023/06/21 01:56:41;;;;;;;10.52;2.92;;;26.50;99.90;;;;;;4936703;29;20028;-51
2023/06/21 01:59:08;;;;;;;8.25;2.58;;;26.50;99.90;;;;;;4936800;29;20031;-51
2023/06/21 02:01:34;;;;;;;5.60;2.63;;;26.50;99.90;;;;;;4958839;23;20063;-45
2023/06/21 02:04:02;;;;;;;6.45;2.60;;;26.50;99.90;;;;;;4956213;29;20114;-45
2023/06/21 02:06:30;;;;;;;9.90;3.03;;;26.60;99.90;;;;;;4941811;29;20032;-44
2023/06/21 02:09:00;;;;;;;6.10;2.38;;;26.60;99.90;;;;;;4954750;29;20468;-44
2023/06/21 02:11:28;;;;;;;8.70;2.15;;;26.60;99.90;;;;;;4941231;29;20039;-45
2023/06/21 02:13:55;;;;;;;5.28;2.65;;;26.60;99.90;;;;;;4943223;29;20074;-44
2023/06/21 02:16:28;;;;;;;5.97;2.28;;;26.70;99.90;;;;;;4942393;28;20547;-44
2023/06/21 02:18:54;;;;;;;6.15;2.45;;;26.70;99.90;;;;;;4944199;29;20041;-44
2023/06/21 02:21:20;;;;;;;7.97;2.20;;;26.80;99.90;;;;;;4955569;29;20019;-44
2023/06/21 02:23:46;;;;;;;6.47;2.57;;;26.80;99.90;;;;;;4955342;28;20058;-44
2023/06/21 02:26:12;;;;;;;7.13;2.15;;;26.80;99.90;;;;;;4955506;29;20051;-44
2023/06/21 02:28:38;;;;;;;5.97;2.15;;;26.80;99.90;;;;;;4937605;29;20564;-45
2023/06/21 02:31:04;;;;;;;6.47;1.88;;;26.80;99.90;;;;;;4936268;29;20024;-44
2023/06/21 02:33:31;;;;;;;10.60;2.30;;;26.90;99.90;;;;;;4939591;29;20034;-45
2023/06/21 02:35:57;;;;;;;4.60;2.08;;;26.90;99.90;;;;;;4955077;29;20540;-45
2023/06/21 02:38:25;;;;;;;8.30;2.25;;;26.90;99.90;;;;;;4954982;29;20093;-45
2023/06/21 02:40:51;;;;;;;5.38;2.17;;;27.00;99.90;;;;;;4954941;28;20026;-45
2023/06/21 02:43:17;;;;;;;6.78;2.13;;;27.00;99.90;;;;;;4954687;29;20484;-44
2023/06/21 02:45:43;;;;;;;7.30;1.80;;;27.00;99.90;;;;;;4953932;29;20035;-45
2023/06/21 02:48:09;;;;;;;6.60;2.22;;;27.00;99.90;;;;;;4953954;29;20019;-45
2023/06/21 02:50:34;;;;;;;8.02;2.17;;;27.00;99.90;;;;;;4935988;29;20102;-45
2023/06/21 02:53:01;;;;;;;11.65;2.55;;;27.00;99.90;;;;;;4936033;29;20024;-45
2023/06/21 02:55:27;;;;;;;6.45;2.88;;;27.10;99.90;;;;;;4954457;29;20023;-45
2023/06/21 02:57:54;;;;;;;10.70;4.03;;;27.10;99.90;;;;;;4953469;29;20082;-46
2023/06/21 03:00:23;;;;;;;10.13;3.22;;;27.10;99.90;;;;;;4955414;29;20066;-45
2023/06/21 03:02:52;;;;;;;8.93;3.20;;;27.00;99.90;;;;;;4953227;29;20047;-45
2023/06/21 03:05:18;;;;;;;8.85;3.10;;;26.90;99.90;;;;;;4954648;29;20035;-45
2023/06/21 03:07:44;;;;;;;10.52;2.95;;;26.80;99.90;;;;;;4944340;29;20034;-45
2023/06/21 03:10:12;;;;;;;13.13;3.17;;;26.70;99.90;;;;;;4952326;29;20488;-45
2023/06/21 03:12:43;;;;;;;10.52;3.22;;;26.60;99.90;;;;;;4954731;29;20027;-45
2023/06/21 03:15:10;;;;;;;8.70;3.25;;;26.60;99.90;;;;;;4954588;29;20034;-45
2023/06/21 03:17:37;;;;;;;12.48;3.80;;;26.40;99.90;;;;;;4954575;29;20038;-44
2023/06/21 03:20:11;;;;;;;14.38;3.20;;;26.30;99.90;;;;;;4954509;29;20015;-45
2023/06/21 03:22:37;;;;;;;13.15;4.13;;;26.20;99.90;;;;;;4954585;28;20027;-45
2023/06/21 03:25:04;;;;;;;17.60;4.32;;;26.20;99.90;;;;;;4954410;29;20076;-45
2023/06/21 03:27:29;;;;;;;16.65;4.18;;;26.10;99.90;;;;;;4954299;29;20020;-45
2023/06/21 03:29:55;;;;;;;12.55;4.63;;;26.00;99.90;;;;;;4939884;29;20038;-44
2023/06/21 03:32:21;;;;;;;17.15;4.50;;;25.90;99.90;;;;;;4935122;29;20019;-45
2023/06/21 03:34:47;;;;;;;16.90;4.30;;;25.80;99.90;;;;;;4936144;29;20123;-45
2023/06/21 03:37:12;;;;;;;13.15;4.68;;;25.80;99.90;;;;;;4954260;29;20034;-45
2023/06/21 03:39:38;;;;;;;17.38;5.40;;;25.70;99.90;;;;;;4954217;29;20034;-44
2023/06/21 03:42:05;;;;;;;11.00;3.42;;;25.60;99.90;;;;;;4954415;29;20488;-44
2023/06/21 03:44:30;;;;;;;18.75;4.22;;;25.60;99.90;;;;;;4953939;29;20023;-44
2023/06/21 03:46:58;;;;;;;14.98;4.18;;;25.50;99.90;;;;;;4952805;29;20031;-44
2023/06/21 03:49:24;;;;;;;14.48;4.70;;;25.40;99.90;;;;;;4954060;29;20016;-44
2023/06/21 03:51:50;;;;;;;15.00;4.25;;;25.30;99.90;;;;;;4952908;29;20019;-44
2023/06/21 03:54:16;;;;;;;11.57;3.95;;;25.20;99.90;;;;;;4939858;29;20027;-44
2023/06/21 03:56:42;;;;;;;17.45;5.18;;;25.20;99.90;;;;;;4934675;29;20035;-44
2023/06/21 03:59:07;;;;;;;13.82;5.10;;;25.10;99.90;;;;;;4934918;29;20027;-44
2023/06/21 04:01:33;;;;;;;16.52;4.13;;;25.10;99.90;;;;;;4935468;29;20119;-45
2023/06/21 04:03:59;;;;;;;16.70;3.78;;;25.00;99.90;;;;;;4934889;29;20036;-45
2023/06/21 04:06:25;;;;;;;10.77;3.78;;;25.00;99.90;;;;;;4934932;29;20087;-44
2023/06/21 04:08:51;;;;;;;11.43;4.07;;;25.00;99.90;;;;;;4943592;29;20383;-44
2023/06/21 04:11:17;;;;;;;16.02;4.57;;;24.90;99.90;;;;;;4953789;29;20020;-45
2023/06/21 04:13:43;;;;;;;11.85;3.47;;;24.90;99.90;;;;;;4954118;29;20019;-50
2023/06/21 04:16:09;;;;;;;14.45;3.72;;;24.90;99.90;;;;;;4940106;29;20032;-45
2023/06/21 04:18:35;;;;;;;15.77;3.97;;;24.90;99.90;;;;;;4942294;29;20016;-46
2023/06/21 04:21:01;;;;;;;13.25;3.92;;;24.90;99.90;;;;;;4954032;29;20496;-46
2023/06/21 04:23:26;;;;;;;12.85;4.00;;;24.90;99.90;;;;;;4947914;29;20031;-47
2023/06/21 04:25:52;;;;;;;10.95;3.95;;;24.90;99.90;;;;;;4934817;29;20539;-45
2023/06/21 04:28:25;;;;;;;17.95;3.30;;;24.80;99.90;;;;;;4938826;29;20070;-45
2023/06/21 04:30:58;;;;;;;12.55;3.72;;;24.90;99.90;;;;;;4953691;28;20026;-45
2023/06/21 04:33:24;;;;;;;14.18;4.38;;;24.90;99.90;;;;;;4934789;29;20027;-45
2023/06/21 04:35:50;;;;;;;36.53;6.18;;;24.90;99.90;;;;;;4945457;29;20023;-45
2023/06/21 04:38:15;;;;;;;12.45;3.42;;;24.90;99.90;;;;;;4937851;29;20035;-45
2023/06/21 04:40:42;;;;;;;19.80;4.28;;;24.90;99.90;;;;;;4941707;29;20383;-45
2023/06/21 04:43:08;;;;;;;14.35;3.75;;;24.90;99.90;;;;;;4953806;29;20019;-46
2023/06/21 04:45:33;;;;;;;23.00;4.55;;;24.90;99.90;;;;;;4953633;29;20033;-45
2023/06/21 04:47:59;;;;;;;26.15;6.22;;;24.90;99.90;;;;;;4953551;29;20112;-45
2023/06/21 04:50:25;;;;;;;23.00;4.88;;;25.00;99.90;;;;;;4953409;29;20023;-45
2023/06/21 04:52:57;;;;;;;9.38;3.55;;;24.90;99.90;;;;;;4953464;29;20046;-45
2023/06/21 04:55:24;;;;;;;10.25;3.38;;;25.00;99.90;;;;;;4940763;29;20024;-45
2023/06/21 04:57:50;;;;;;;10.73;3.17;;;25.00;99.90;;;;;;4953211;29;20035;-45
2023/06/21 05:00:17;;;;;;;9.82;3.30;;;25.00;99.90;;;;;;4935054;29;20385;-45
2023/06/21 05:02:43;;;;;;;10.55;3.10;;;25.00;99.90;;;;;;4945117;29;20039;-45
2023/06/21 05:05:09;;;;;;;12.48;3.28;;;25.00;99.90;;;;;;4954840;28;20110;-46
2023/06/21 05:07:37;;;;;;;9.48;3.13;;;25.00;99.90;;;;;;4957001;28;20055;-45
2023/06/21 05:10:06;;;;;;;8.85;2.70;;;25.00;99.90;;;;;;4956639;29;20415;-45
2023/06/21 05:12:31;;;;;;;12.93;3.05;;;25.00;99.90;;;;;;4956464;29;20022;-45
2023/06/21 05:14:57;;;;;;;11.77;3.70;;;25.00;99.90;;;;;;4941699;29;20103;-45
2023/06/21 05:17:23;;;;;;;13.25;4.50;;;25.00;99.90;;;;;;4937595;29;20127;-45
2023/06/21 05:19:49;;;;;;;10.52;3.55;;;25.00;99.90;;;;;;4937379;29;20063;-45
2023/06/21 05:22:14;;;;;;;16.10;4.03;;;25.00;99.90;;;;;;4937472;29;20485;-45
2023/06/21 05:24:40;;;;;;;9.98;3.55;;;25.00;99.90;;;;;;4938166;29;20484;-45
2023/06/21 05:27:06;;;;;;;9.63;3.70;;;25.00;99.90;;;;;;4956738;29;20479;-46
2023/06/21 05:29:34;;;;;;;13.77;4.18;;;25.00;99.90;;;;;;4956527;29;20102;-46
2023/06/21 05:32:00;;;;;;;18.17;4.97;;;24.90;99.90;;;;;;4956370;29;20027;-46
2023/06/21 05:34:27;;;;;;;19.70;4.57;;;24.90;99.90;;;;;;4945770;29;20480;-46
2023/06/21 05:36:53;;;;;;;15.60;3.80;;;24.90;99.90;;;;;;4937132;29;20039;-45
2023/06/21 05:39:19;;;;;;;14.30;4.35;;;24.90;99.90;;;;;;4937144;29;20480;-45
2023/06/21 05:41:45;;;;;;;14.50;4.68;;;24.90;99.90;;;;;;4952810;29;20484;-45
2023/06/21 05:44:10;;;;;;;15.07;5.13;;;24.80;99.90;;;;;;4956395;29;20031;-45
2023/06/21 05:46:36;;;;;;;18.33;4.55;;;24.80;99.90;;;;;;4939893;29;20381;-45
2023/06/21 05:49:02;;;;;;;17.17;5.03;;;24.70;99.90;;;;;;4936890;29;20523;-46
2023/06/21 05:51:28;;;;;;;20.83;4.35;;;24.70;99.90;;;;;;4936898;29;20517;-45
2023/06/21 05:53:56;;;;;;;18.83;5.07;;;24.70;99.90;;;;;;4936880;29;20051;-44
2023/06/21 05:56:24;;;;;;;14.75;3.97;;;24.70;99.90;;;;;;4949346;29;20514;-45
2023/06/21 05:58:50;;;;;;;11.35;3.85;;;24.70;99.90;;;;;;4943985;29;20023;-44
2023/06/21 06:01:16;;;;;;;13.00;3.95;;;24.70;99.90;;;;;;4943640;29;20048;-44
2023/06/21 06:03:42;;;;;;;15.40;4.60;;;24.70;99.90;;;;;;4942694;29;20084;-45
2023/06/21 06:06:08;;;;;;;11.23;3.53;;;24.60;99.90;;;;;;4956074;29;20027;-44
2023/06/21 06:08:34;;;;;;;12.27;4.10;;;24.70;99.90;;;;;;4955537;29;20031;-45
2023/06/21 06:11:00;;;;;;;11.98;3.72;;;24.70;99.90;;;;;;4943171;29;20029;-44
2023/06/21 06:13:28;;;;;;;14.90;4.38;;;24.80;99.90;;;;;;4936375;29;20020;-45
2023/06/21 06:15:54;;;;;;;12.95;4.25;;;24.90;99.90;;;;;;4936023;29;20016;-45
2023/06/21 06:18:19;;;;;;;15.05;4.22;;;25.00;99.90;;;;;;4936150;29;20389;-44
2023/06/21 06:20:45;;;;;;;14.60;4.80;;;25.00;99.90;;;;;;4948161;29;20023;-45
2023/06/21 06:23:12;;;;;;;15.55;4.55;;;25.00;99.90;;;;;;4955482;29;20020;-44
2023/06/21 06:25:38;;;;;;;13.35;3.80;;;25.00;99.90;;;;;;4955523;29;20389;-45
2023/06/21 06:28:04;;;;;;;18.63;5.47;;;25.10;99.90;;;;;;4949590;29;20054;-45
2023/06/21 06:30:30;;;;;;;16.25;6.13;;;25.00;99.90;;;;;;4945905;29;20502;-45
2023/06/21 06:32:56;;;;;;;17.38;4.10;;;25.10;99.90;;;;;;4938030;29;20098;-45
2023/06/21 06:35:22;;;;;;;10.15;3.70;;;25.10;99.90;;;;;;4941704;29;20464;-45
2023/06/21 06:37:48;;;;;;;12.25;4.72;;;25.10;99.90;;;;;;4954961;29;20260;-45
2023/06/21 06:40:14;;;;;;;12.48;3.88;;;25.10;99.90;;;;;;4941211;29;20528;-44
2023/06/21 06:42:40;;;;;;;20.00;4.47;;;25.10;99.90;;;;;;4955388;29;20102;-45
2023/06/21 06:45:07;;;;;;;16.15;4.93;;;25.10;99.90;;;;;;4953699;29;20051;-45
2023/06/21 06:47:32;;;;;;;9.40;4.18;;;25.20;99.90;;;;;;4953780;29;20086;-45
2023/06/21 06:49:58;;;;;;;13.57;4.53;;;25.20;99.90;;;;;;4949068;29;20023;-46
2023/06/21 06:52:24;;;;;;;13.95;4.10;;;25.20;99.90;;;;;;4953536;28;20098;-45
2023/06/21 06:54:50;;;;;;;9.48;3.88;;;25.20;99.90;;;;;;4953403;29;20027;-46
2023/06/21 06:57:16;;;;;;;16.65;4.38;;;25.30;99.90;;;;;;4954772;29;20031;-46
2023/06/21 06:59:42;;;;;;;15.27;5.30;;;25.30;99.90;;;;;;4953876;29;20031;-46
2023/06/21 07:02:08;;;;;;;12.02;3.67;;;25.30;99.90;;;;;;4953052;29;20083;-46
2023/06/21 07:04:33;;;;;;;9.32;4.28;;;25.30;99.90;;;;;;4953468;29;20034;-46
2023/06/21 07:07:01;;;;;;;14.93;4.60;;;25.30;99.90;;;;;;4940558;29;20034;-46
2023/06/21 07:09:27;;;;;;;14.73;5.95;;;25.40;99.90;;;;;;4939225;29;20413;-46
2023/06/21 07:11:59;;;;;;;10.07;4.22;;;25.40;99.90;;;;;;4952652;28;20058;-46
2023/06/21 07:14:25;;;;;;;10.57;4.22;;;25.40;99.90;;;;;;4953588;29;20130;-46
2023/06/21 07:16:51;;;;;;;16.98;4.05;;;25.40;99.90;;;;;;4952404;29;20031;-46
2023/06/21 07:19:16;;;;;;;7.30;3.92;;;25.40;99.90;;;;;;4953890;29;20033;-46
2023/06/21 07:21:42;;;;;;;8.55;3.58;;;25.40;99.90;;;;;;4935249;29;20030;-45
2023/06/21 07:24:08;;;;;;;8.60;3.65;;;25.50;99.90;;;;;;4945561;29;20039;-45
2023/06/21 07:26:34;;;;;;;4.78;3.10;;;25.50;99.90;;;;;;4936515;29;20035;-45
2023/06/21 07:29:00;;;;;;;9.80;3.95;;;25.50;99.90;;;;;;4943768;29;20027;-47
2023/06/21 07:31:26;;;;;;;8.50;3.97;;;25.60;99.90;;;;;;4953438;29;20097;-46
2023/06/21 07:33:57;;;;;;;8.30;3.45;;;25.50;99.90;;;;;;4952296;29;20513;-46
2023/06/21 07:36:22;;;;;;;10.98;3.17;;;25.60;99.90;;;;;;4953217;29;20031;-45
2023/06/21 07:38:48;;;;;;;11.00;3.78;;;25.60;99.90;;;;;;4940770;29;20392;-47
2023/06/21 07:41:15;;;;;;;10.98;4.28;;;25.60;99.90;;;;;;4941271;29;20544;-46
2023/06/21 07:43:41;;;;;;;13.02;4.10;;;25.70;99.90;;;;;;4934311;29;20032;-46
2023/06/21 07:46:07;;;;;;;7.32;3.75;;;25.70;99.90;;;;;;4945664;29;20027;-46
2023/06/21 07:48:34;;;;;;;10.43;3.85;;;25.70;99.90;;;;;;4948326;29;20019;-46
2023/06/21 07:51:00;;;;;;;11.63;4.53;;;25.70;99.90;;;;;;4944156;29;20054;-46
2023/06/21 07:53:26;;;;;;;8.02;3.95;;;25.70;99.90;;;;;;4953055;29;20081;-45
2023/06/21 07:55:52;;;;;;;13.27;4.18;;;25.80;99.90;;;;;;4951998;29;20125;-45
2023/06/21 07:58:17;;;;;;;15.73;3.83;;;25.80;99.90;;;;;;4953303;29;20042;-46
2023/06/21 08:00:43;;;;;;;9.85;4.05;;;25.80;99.90;;;;;;4953270;29;20054;-45
2023/06/21 08:03:09;;;;;;;16.65;6.63;;;25.80;99.90;;;;;;4902346;29;1494165;-46
2023/06/21 08:05:35;;;;;;;14.77;4.55;;;25.80;99.90;;;;;;4953928;29;20030;-46
2023/06/21 08:08:02;;;;;;;10.30;3.63;;;25.90;99.90;;;;;;4953938;29;20107;-46
2023/06/21 08:10:30;;;;;;;13.68;4.18;;;25.90;99.90;;;;;;4947186;29;20103;-46
2023/06/21 08:12:56;;;;;;;11.15;3.85;;;25.90;99.90;;;;;;4934875;29;20039;-45
2023/06/21 08:15:22;;;;;;;10.95;4.05;;;26.00;99.90;;;;;;4934676;29;20373;-45
2023/06/21 08:17:49;;;;;;;10.13;3.67;;;26.00;99.90;;;;;;4945882;29;20031;-45
2023/06/21 08:20:15;;;;;;;6.87;3.50;;;26.00;99.90;;;;;;4947987;29;20103;-45
2023/06/21 08:22:40;;;;;;;9.68;4.03;;;26.00;99.90;;;;;;4945739;29;20039;-45
2023/06/21 08:25:06;;;;;;;12.55;4.18;;;26.10;99.90;;;;;;4953670;29;20019;-45
2023/06/21 08:27:32;;;;;;;7.47;3.92;;;26.10;99.90;;;;;;4953698;29;20102;-46
2023/06/21 08:29:58;;;;;;;5.30;3.17;;;26.10;99.90;;;;;;4939199;29;20580;-46
2023/06/21 08:32:24;;;;;;;8.10;3.40;;;26.20;99.90;;;;;;4953661;29;20106;-46
2023/06/21 08:34:52;;;;;;;7.28;3.92;;;26.20;99.90;;;;;;4953856;29;20028;-46
2023/06/21 08:37:24;;;;;;;10.23;4.10;;;26.20;99.90;;;;;;4953777;29;20393;-46
2023/06/21 08:39:52;;;;;;;12.23;4.25;;;26.20;99.90;;;;;;4954654;28;20020;-46
2023/06/21 08:42:23;;;;;;;;;;;26.30;99.90;;;;;;4957975;29;20106;-46
2023/06/21 08:44:50;;;;;;;15.35;4.55;;;26.30;99.90;;;;;;4957304;29;20039;-46
2023/06/21 08:47:17;;;;;;;7.03;3.72;;;26.40;99.90;;;;;;4956099;29;20078;-46
2023/06/21 08:49:46;;;;;;;11.55;5.18;;;26.40;99.90;;;;;;4942886;29;20024;-46
2023/06/21 08:52:17;;;;;;;12.68;3.70;;;26.40;99.90;;;;;;4944551;29;20031;-45
2023/06/21 08:54:51;;;;;;;6.55;3.65;;;26.50;99.90;;;;;;4955852;29;20023;-44
2023/06/21 08:57:24;;;;;;;7.82;4.13;;;26.50;99.90;;;;;;4944819;29;20027;-45
2023/06/21 09:00:02;;;;;;;15.40;5.22;;;26.50;99.90;;;;;;4957105;29;20030;-45
2023/06/21 09:02:47;;;;;;;7.95;3.80;;;26.50;99.90;;;;;;4947277;29;20055;-49
2023/06/21 09:05:20;;;;;;;10.70;4.45;;;26.60;99.90;;;;;;4954450;29;20031;-48
2023/06/21 09:07:46;;;;;;;7.30;4.47;;;26.60;99.90;;;;;;4956904;28;20532;-44
2023/06/21 09:10:20;;;;;;;13.75;5.97;;;26.60;99.90;;;;;;4956582;29;20391;-44
2023/06/21 09:12:49;;;;;;;11.57;5.72;;;26.60;99.90;;;;;;4946101;28;20114;-45
2023/06/21 09:15:15;;;;;;;8.35;3.80;;;26.70;99.90;;;;;;4942448;29;20094;-44
2023/06/21 09:17:44;;;;;;;10.65;5.38;;;26.70;99.90;;;;;;4955243;29;20116;-46
2023/06/21 09:20:11;;;;;;;10.38;4.60;;;26.80;99.90;;;;;;4938503;29;20051;-45
2023/06/21 09:22:38;;;;;;;;;;;26.80;99.90;;;;;;4937804;29;20043;-44
2023/06/21 09:25:04;;;;;;;10.85;4.53;;;26.80;99.90;;;;;;4950050;29;19989;-44
2023/06/21 09:27:30;;;;;;;11.15;6.05;;;26.80;99.90;;;;;;4937220;29;20028;-45
2023/06/21 09:29:56;;;;;;;9.45;4.80;;;26.80;99.90;;;;;;4937298;29;20091;-45
2023/06/21 09:32:22;;;;;;;10.75;5.30;;;26.80;99.90;;;;;;4946650;29;20051;-45
2023/06/21 09:34:49;;;;;;;8.33;4.60;;;26.80;99.90;;;;;;4955118;29;20046;-46
2023/06/21 09:37:34;;;;;;;9.18;4.72;;;26.80;99.90;;;;;;4938997;29;20027;-45
2023/06/21 09:40:01;;;;;;;8.95;4.43;;;26.90;99.90;;;;;;4956200;29;20383;-45
2023/06/21 09:42:27;;;;;;;9.68;5.30;;;26.90;99.90;;;;;;4956274;29;20023;-46
2023/06/21 09:44:53;;;;;;;8.80;4.68;;;26.90;99.90;;;;;;4954825;29;20078;-45
2023/06/21 09:47:20;;;;;;;8.60;5.13;;;26.90;99.90;;;;;;4956194;29;20049;-46
2023/06/21 09:49:46;;;;;;;7.65;4.35;;;27.00;99.90;;;;;;4939882;29;20028;-45
2023/06/21 09:52:21;;;;;;;8.82;4.38;;;26.90;99.90;;;;;;4936918;29;20532;-45
2023/06/21 09:54:47;;;;;;;16.33;6.15;;;27.00;99.90;;;;;;4936763;29;20035;-45
2023/06/21 09:57:12;;;;;;;8.27;5.55;;;27.00;99.90;;;;;;4946149;29;20067;-45
2023/06/21 09:59:40;;;;;;;10.95;6.63;;;27.10;99.90;;;;;;4955723;29;20046;-43
2023/06/21 10:02:07;;;;;;;8.82;4.28;;;27.10;99.90;;;;;;4955539;29;20043;-44
2023/06/21 10:04:43;;;;;;;;;;;27.10;99.90;;;;;;4956180;29;20019;-44
2023/06/21 10:07:11;;;;;;;6.68;4.20;;;27.20;99.90;;;;;;4955631;29;19911;-44
2023/06/21 10:09:37;;;;;;;11.27;4.45;;;27.20;99.90;;;;;;4942855;29;20024;-44
2023/06/21 10:12:09;;;;;;;7.30;3.40;;;27.20;99.90;;;;;;4955724;29;20380;-44
2023/06/21 10:14:35;;;;;;;10.40;5.72;;;27.20;99.90;;;;;;4954045;29;20114;-45
2023/06/21 10:17:02;;;;;;;9.07;4.25;;;27.30;99.90;;;;;;4955500;29;20122;-44
2023/06/21 10:19:31;;;;;;;8.93;4.10;;;27.30;99.90;;;;;;4955285;28;20412;-44
2023/06/21 10:22:09;;;;;;;9.32;3.60;;;27.30;99.90;;;;;;4955538;29;20031;-44
2023/06/21 10:24:49;;;;;;;10.32;4.63;;;27.30;99.90;;;;;;4942241;29;20031;-44
2023/06/21 10:27:17;;;;;;;15.70;7.57;;;27.40;99.90;;;;;;4955214;29;20449;-45
2023/06/21 10:29:44;;;;;;;13.45;5.47;;;27.40;99.90;;;;;;4941392;29;20042;-44
2023/06/21 10:32:11;;;;;;;10.00;5.90;;;27.40;99.90;;;;;;4953986;29;20062;-45
2023/06/21 10:34:43;;;;;;;8.05;4.55;;;27.40;99.90;;;;;;4955246;29;20122;-46
2023/06/21 10:37:22;;;;;;;6.60;4.15;;;27.30;99.90;;;;;;4955117;29;20094;-46
2023/06/21 10:39:53;;;;;;;11.10;4.97;;;27.40;99.90;;;;;;4955062;29;20035;-46
2023/06/21 10:42:21;;;;;;;12.30;4.75;;;27.30;99.90;;;;;;4955088;28;20063;-45
2023/06/21 10:44:50;;;;;;;10.23;4.28;;;27.40;99.90;;;;;;4952403;29;20035;-45
2023/06/21 10:47:19;;;;;;;9.60;4.32;;;27.40;99.90;;;;;;4935740;29;20066;-45
2023/06/21 10:49:47;;;;;;;12.00;6.75;;;27.40;99.90;;;;;;4949529;29;20031;-45
2023/06/21 10:52:14;;;;;;;12.75;5.00;;;27.40;99.90;;;;;;4954937;29;20472;-46
2023/06/21 10:54:42;;;;;;;11.82;4.45;;;27.40;99.90;;;;;;4941097;29;20031;-45
2023/06/21 10:57:08;;;;;;;13.10;6.95;;;27.40;99.90;;;;;;4953329;29;20031;-46
2023/06/21 10:59:35;;;;;;;13.13;5.13;;;27.40;99.90;;;;;;4954825;29;20037;-46
2023/06/21 11:02:01;;;;;;;10.25;4.97;;;27.40;99.90;;;;;;4954257;28;20507;-46
2023/06/21 11:04:27;;;;;;;11.05;4.70;;;27.40;99.90;;;;;;4954664;29;20042;-46
2023/06/21 11:07:00;;;;;;;24.42;14.07;;;27.50;99.90;;;;;;4954708;29;20091;-46
2023/06/21 11:09:25;;;;;;;13.02;6.05;;;27.50;99.90;;;;;;4953734;29;20047;-46
2023/06/21 11:11:53;;;;;;;14.30;7.15;;;27.40;99.90;;;;;;4954736;29;20023;-46
2023/06/21 11:14:29;;;;;;;15.07;5.15;;;27.50;99.90;;;;;;4954614;29;20028;-46
2023/06/21 11:17:24;;;;;;;10.13;5.50;;;27.50;99.90;;;;;;4954428;29;20035;-46
2023/06/21 11:19:50;;;;;;;13.82;5.35;;;27.50;99.90;;;;;;4945444;28;20036;-45
2023/06/21 11:22:25;;;;;;;9.82;5.20;;;27.50;99.90;;;;;;4954031;28;20119;-46
2023/06/21 11:25:00;;;;;;;11.85;5.68;;;27.50;99.90;;;;;;4937581;29;20024;-47
2023/06/21 11:27:26;;;;;;;10.45;5.05;;;27.50;99.90;;;;;;4946555;28;20024;-46
2023/06/21 11:29:59;;;;;;;17.40;4.68;;;27.50;99.90;;;;;;4963180;28;20028;-45
2023/06/21 11:32:29;;;;;;;14.15;4.55;;;27.50;99.90;;;;;;4954587;29;20055;-46
2023/06/21 11:34:56;;;;;;;11.55;4.10;;;27.50;99.90;;;;;;4954333;29;20019;-45
2023/06/21 11:37:47;;;;;;;13.80;5.75;;;27.60;99.90;;;;;;4954041;29;20094;-45
2023/06/21 11:40:15;;;;;;;11.52;4.60;;;27.50;99.90;;;;;;4937199;29;20432;-46
2023/06/21 11:42:46;;;;;;;12.00;4.03;;;27.50;99.90;;;;;;4954050;29;20039;-45
2023/06/21 11:45:24;;;;;;;11.38;4.30;;;27.50;99.90;;;;;;4953958;29;20029;-45
2023/06/21 11:48:14;;;;;;;17.45;4.72;;;27.50;99.90;;;;;;4942815;29;20098;-45
2023/06/21 11:50:45;;;;;;;13.57;8.50;;;27.50;99.90;;;;;;4941672;29;20110;-44
2023/06/21 11:53:41;;;;;;;13.77;6.60;;;27.50;99.90;;;;;;4953065;29;20023;-45
2023/06/21 11:56:16;;;;;;;11.40;6.25;;;27.50;99.90;;;;;;4949659;28;20516;-45
2023/06/21 11:58:42;;;;;;;11.85;6.00;;;27.40;99.90;;;;;;4953517;29;20543;-45
2023/06/21 12:01:08;;;;;;;13.70;6.05;;;27.40;99.90;;;;;;4953699;29;20110;-45
2023/06/21 12:03:33;;;;;;;13.35;8.10;;;27.40;99.90;;;;;;4953722;28;20147;-46
2023/06/21 12:06:02;;;;;;;7.35;4.97;;;27.30;99.90;;;;;;4954229;29;20361;-47
2023/06/21 12:08:34;;;;;;;15.07;6.60;;;27.30;99.90;;;;;;4941391;29;20015;-45
2023/06/21 12:11:08;;;;;;;16.48;10.45;;;27.30;99.90;;;;;;4943399;29;20481;-45
2023/06/21 12:13:35;;;;;;;16.55;12.70;;;27.20;99.90;;;;;;4938367;28;20042;-44
2023/06/21 12:16:05;;;;;;;13.73;8.07;;;27.20;99.90;;;;;;4957063;29;20060;-44
2023/06/21 12:18:36;;;;;;;14.73;8.23;;;27.20;99.90;;;;;;4957714;29;20039;-45
2023/06/21 12:21:09;;;;;;;16.33;11.10;;;27.10;99.90;;;;;;4958046;29;20396;-45
2023/06/21 12:23:35;;;;;;;11.40;6.70;;;27.10;99.90;;;;;;4956476;29;20023;-46
2023/06/21 12:26:05;;;;;;;16.15;10.85;;;27.10;99.90;;;;;;4957766;29;20023;-47
2023/06/21 12:28:32;;;;;;;24.40;13.00;;;27.10;99.90;;;;;;4941189;29;20114;-46
2023/06/21 12:30:59;;;;;;;17.90;7.50;;;27.10;99.90;;;;;;4938771;29;20028;-46
2023/06/21 12:33:27;;;;;;;19.15;9.75;;;27.10;99.90;;;;;;4938131;29;20083;-47
2023/06/21 12:36:15;;;;;;;18.58;10.55;;;27.10;99.90;;;;;;4938500;29;20067;-47
2023/06/21 12:38:46;;;;;;;;;;;27.10;99.90;;;;;;4938728;29;20548;-46
2023/06/21 12:41:16;;;;;;;11.18;7.13;;;27.10;99.90;;;;;;4938128;29;19910;-46
2023/06/21 12:43:44;;;;;;;15.57;8.73;;;27.10;99.90;;;;;;4937907;29;20032;-47
2023/06/21 12:46:10;;;;;;;23.50;12.68;;;27.20;99.90;;;;;;4950197;29;20027;-47
2023/06/21 12:48:42;;;;;;;26.70;18.30;;;27.20;99.90;;;;;;4937825;29;20038;-45